createdAt,value
2018-06-22T00:02:47.829Z,100945.66
2018-06-22T00:05:51.116Z,100945.66
2018-06-22T00:08:55.105Z,100954.27
2018-06-22T00:11:58.284Z,100955.52
2018-06-22T00:15:01.507Z,100950.77
2018-06-22T00:18:04.738Z,100961.72
2018-06-22T00:21:07.920Z,100949.98
2018-06-22T00:24:11.095Z,100971.30
2018-06-22T00:27:14.319Z,100956.42
2018-06-22T00:30:17.618Z,100956.33
2018-06-22T00:33:21.046Z,100949.94
2018-06-22T00:36:24.285Z,100954.72
2018-06-22T00:39:27.460Z,100955.65
2018-06-22T00:42:30.701Z,100942.61
2018-06-22T00:45:34.067Z,100951.55
2018-06-22T00:48:37.260Z,100954.22
2018-06-22T00:51:40.442Z,100944.41
2018-06-22T00:54:43.685Z,100938.57
2018-06-22T00:57:46.929Z,100939.53
2018-06-22T01:00:50.087Z,100935.16
2018-06-22T01:03:53.331Z,100932.53
2018-06-22T01:06:56.539Z,100934.70
2018-06-22T01:09:59.751Z,100933.86
2018-06-22T01:13:02.965Z,100929.27
2018-06-22T01:16:06.144Z,100925.85
2018-06-22T01:19:09.657Z,100930.91
2018-06-22T01:22:12.898Z,100926.41
2018-06-22T01:25:16.089Z,100936.34
2018-06-22T01:28:19.306Z,100929.08
2018-06-22T01:31:22.507Z,100926.62
2018-06-22T01:34:25.673Z,100925.98
2018-06-22T01:37:28.944Z,100924.83
2018-06-22T01:40:32.167Z,100918.74
2018-06-22T01:43:35.336Z,100927.22
2018-06-22T01:46:38.513Z,100918.39
2018-06-22T01:49:42.091Z,100919.70
2018-06-22T01:52:45.291Z,100914.67
2018-06-22T01:55:48.539Z,100924.67
2018-06-22T01:58:51.771Z,100927.45
2018-06-22T02:01:55.138Z,100921.90
2018-06-22T02:04:58.348Z,100918.57
2018-06-22T02:08:01.524Z,100919.04
2018-06-22T02:11:04.793Z,100912.50
2018-06-22T02:14:08.069Z,100921.36
2018-06-22T02:17:11.241Z,100919.44
2018-06-22T02:20:14.430Z,100920.49
2018-06-22T02:23:17.697Z,100922.48
2018-06-22T02:26:20.896Z,100920.11
2018-06-22T02:29:24.061Z,100915.25
2018-06-22T02:32:27.229Z,100923.91
2018-06-22T02:35:30.407Z,100935.53
2018-06-22T02:38:33.615Z,100916.20
2018-06-22T02:41:36.831Z,100926.29
2018-06-22T02:44:40.051Z,100916.86
2018-06-22T02:47:43.226Z,100921.42
2018-06-22T02:50:46.380Z,100921.73
2018-06-22T02:53:49.643Z,100910.86
2018-06-22T02:56:52.841Z,100925.26
2018-06-22T02:59:56.122Z,100916.97
2018-06-22T03:02:59.199Z,100914.69
2018-06-22T03:06:02.457Z,100912.67
2018-06-22T03:09:07.042Z,100911.83
2018-06-22T03:12:10.207Z,100910.48
2018-06-22T03:15:13.439Z,100907.55
2018-06-22T03:18:16.685Z,100918.59
2018-06-22T03:21:19.975Z,100913.35
2018-06-22T03:24:23.126Z,100911.45
2018-06-22T03:27:26.279Z,100912.31
2018-06-22T03:30:29.590Z,100913.53
2018-06-22T03:33:33.041Z,100909.73
2018-06-22T03:36:36.372Z,100914.97
2018-06-22T03:39:39.659Z,100900.59
2018-06-22T03:42:43.070Z,100912.96
2018-06-22T03:45:46.309Z,100912.03
2018-06-22T03:48:50.472Z,100917.44
2018-06-22T03:51:53.698Z,100912.78
2018-06-22T03:54:56.852Z,100910.70
2018-06-22T03:58:00.049Z,100922.68
2018-06-22T04:01:03.203Z,100913.72
2018-06-22T04:04:06.393Z,100912.11
2018-06-22T04:07:09.633Z,100913.45
2018-06-22T04:10:12.817Z,100910.11
2018-06-22T04:13:15.998Z,100915.63
2018-06-22T04:16:19.673Z,100908.59
2018-06-22T04:19:22.880Z,100906.39
2018-06-22T04:22:26.155Z,100917.65
2018-06-22T04:25:29.550Z,100906.69
2018-06-22T04:28:32.919Z,100905.16
2018-06-22T04:31:36.344Z,100907.82
2018-06-22T04:34:39.529Z,100908.30
2018-06-22T04:37:42.725Z,100905.34
2018-06-22T04:40:45.903Z,100908.11
2018-06-22T04:43:49.096Z,100904.30
2018-06-22T04:46:53.065Z,100905.91
2018-06-22T04:49:56.213Z,100902.09
2018-06-22T04:52:59.412Z,100899.73
2018-06-22T04:56:02.628Z,100891.33
2018-06-22T04:59:05.872Z,100910.19
2018-06-22T05:02:10.389Z,100905.45
2018-06-22T05:05:13.749Z,100902.29
2018-06-22T05:08:17.060Z,100907.59
2018-06-22T05:11:20.334Z,100902.94
2018-06-22T05:14:24.239Z,100896.84
2018-06-22T05:17:27.448Z,100904.38
2018-06-22T05:20:30.790Z,100894.66
2018-06-22T05:23:34.032Z,100912.20
2018-06-22T05:26:37.246Z,100902.73
2018-06-22T05:29:40.643Z,100898.08
2018-06-22T05:32:45.566Z,100922.55
2018-06-22T05:35:48.906Z,100902.67
2018-06-22T05:38:52.297Z,100900.28
2018-06-22T05:41:55.460Z,100900.84
2018-06-22T05:44:58.750Z,100897.52
2018-06-22T05:48:01.938Z,100894.23
2018-06-22T05:51:05.853Z,100899.88
2018-06-22T05:54:09.048Z,100894.70
2018-06-22T05:57:12.254Z,100893.55
2018-06-22T06:00:15.514Z,100891.16
2018-06-22T06:03:18.734Z,100905.27
2018-06-22T06:06:21.927Z,100903.72
2018-06-22T06:09:25.151Z,100898.97
2018-06-22T06:12:28.406Z,100915.04
2018-06-22T06:15:31.735Z,100903.86
2018-06-22T06:18:34.969Z,100894.84
2018-06-22T06:21:38.194Z,100890.22
2018-06-22T06:24:41.364Z,100896.90
2018-06-22T06:27:44.584Z,100892.34
2018-06-22T06:30:47.763Z,100891.49
2018-06-22T06:33:50.935Z,100891.40
2018-06-22T06:36:54.106Z,100893.30
2018-06-22T06:39:57.296Z,100890.84
2018-06-22T06:43:00.496Z,100896.28
2018-06-22T06:46:03.749Z,100895.23
2018-06-22T06:49:06.931Z,100897.48
2018-06-22T06:52:10.132Z,100899.13
2018-06-22T06:55:13.325Z,100898.61
2018-06-22T06:58:16.520Z,100892.80
2018-06-22T07:01:19.708Z,100897.77
2018-06-22T07:04:22.887Z,100895.27
2018-06-22T07:07:26.125Z,100911.25
2018-06-22T07:10:29.307Z,100903.56
2018-06-22T07:13:32.502Z,100903.56
2018-06-22T07:16:35.933Z,100905.55
2018-06-22T07:19:39.239Z,100911.67
2018-06-22T07:22:42.460Z,100918.55
2018-06-22T07:25:45.662Z,100921.86
2018-06-22T07:28:48.877Z,100916.09
2018-06-22T07:31:52.062Z,100926.46
2018-06-22T07:34:55.195Z,100924.61
2018-06-22T07:37:58.388Z,100921.66
2018-06-22T07:41:01.657Z,100933.25
2018-06-22T07:44:04.932Z,100935.23
2018-06-22T07:47:08.164Z,100927.45
2018-06-22T07:50:11.371Z,100917.57
2018-06-22T07:53:14.573Z,100928.07
2018-06-22T07:56:17.782Z,100933.79
2018-06-22T07:59:21.027Z,100932.11
2018-06-22T08:02:24.275Z,100940.73
2018-06-22T08:05:27.536Z,100959.98
2018-06-22T08:08:30.781Z,100957.95
2018-06-22T08:11:34.037Z,100954.15
2018-06-22T08:14:37.328Z,100948.16
2018-06-22T08:17:41.629Z,100965.83
2018-06-22T08:20:46.471Z,100968.03
2018-06-22T08:23:50.143Z,100965.69
2018-06-22T08:26:53.799Z,100973.70
2018-06-22T08:29:58.079Z,100970.20
2018-06-22T08:33:02.319Z,100981.16
2018-06-22T08:36:05.774Z,100976.28
2018-06-22T08:39:10.131Z,100977.64
2018-06-22T08:42:14.537Z,100994.14
2018-06-22T08:45:18.085Z,100982.39
2018-06-22T08:48:21.842Z,100986.86
2018-06-22T08:51:25.563Z,100985.28
2018-06-22T08:54:29.536Z,100992.78
2018-06-22T08:57:34.222Z,100992.95
2018-06-22T09:00:37.664Z,100985.13
2018-06-22T09:03:42.223Z,100978.16
2018-06-22T09:06:46.456Z,100984.25
2018-06-22T09:09:49.943Z,100985.75
2018-06-22T09:12:56.290Z,100980.19
2018-06-22T09:16:00.175Z,100993.19
2018-06-22T09:19:03.627Z,100990.89
2018-06-22T09:22:06.997Z,100986.60
2018-06-22T09:25:10.236Z,100988.50
2018-06-22T09:28:13.950Z,100980.44
2018-06-22T09:31:17.905Z,100991.38
2018-06-22T09:34:21.434Z,100996.95
2018-06-22T09:37:25.764Z,100984.73
2018-06-22T09:40:29.469Z,100988.95
2018-06-22T09:43:33.076Z,100992.31
2018-06-22T09:46:37.429Z,100982.94
2018-06-22T09:49:41.912Z,100982.91
2018-06-22T09:52:45.872Z,100992.25
2018-06-22T09:55:49.862Z,101010.86
2018-06-22T09:58:54.016Z,101007.54
2018-06-22T10:01:59.324Z,101010.23
2018-06-22T10:05:03.470Z,101014.09
2018-06-22T10:08:07.151Z,101010.44
2018-06-22T10:11:10.484Z,101004.46
2018-06-22T10:14:13.836Z,101011.01
2018-06-22T10:17:17.147Z,101006.20
2018-06-22T10:20:20.436Z,101002.87
2018-06-22T10:23:24.002Z,100999.99
2018-06-22T10:26:27.387Z,101012.67
2018-06-22T10:29:30.631Z,101006.95
2018-06-22T10:32:33.939Z,101009.65
2018-06-22T10:35:37.239Z,101019.45
2018-06-22T10:38:40.532Z,101014.50
2018-06-22T10:41:43.856Z,101013.63
2018-06-22T10:44:47.125Z,101015.00
2018-06-22T10:47:50.679Z,101002.56
2018-06-22T10:50:53.947Z,101005.61
2018-06-22T10:53:57.863Z,100997.59
2018-06-22T10:57:01.316Z,101000.38
2018-06-22T11:00:05.383Z,100993.34
2018-06-22T11:03:11.759Z,100989.61
2018-06-22T11:06:16.632Z,100991.72
2018-06-22T11:09:21.075Z,100987.69
2018-06-22T11:12:24.921Z,101003.66
2018-06-22T11:15:28.367Z,100989.73
2018-06-22T11:18:35.777Z,100996.37
2018-06-22T11:21:39.136Z,100986.66
2018-06-22T11:24:42.799Z,100984.84
2018-06-22T11:27:46.153Z,100984.44
2018-06-22T11:30:49.512Z,100985.35
2018-06-22T11:33:52.880Z,100980.55
2018-06-22T11:36:56.200Z,100980.69
2018-06-22T11:39:59.518Z,100982.03
2018-06-22T11:43:02.781Z,100983.63
2018-06-22T11:46:06.239Z,100993.38
2018-06-22T11:49:09.545Z,100996.91
2018-06-22T11:52:12.951Z,100990.15
2018-06-22T11:55:18.740Z,101005.09
2018-06-22T11:58:23.248Z,101001.12
2018-06-22T12:01:35.818Z,100987.91
2018-06-22T12:04:49.759Z,100986.92
2018-06-22T12:07:53.606Z,100984.17
2018-06-22T12:11:02.040Z,100992.87
2018-06-22T12:14:06.767Z,100995.02
2018-06-22T12:17:10.192Z,100991.28
2018-06-22T12:20:20.734Z,100997.55
2018-06-22T12:23:31.382Z,100999.64
2018-06-22T12:26:34.798Z,100989.69
2018-06-22T12:29:38.387Z,100990.57
2018-06-22T12:32:41.968Z,100999.63
2018-06-22T12:35:52.782Z,100995.34
2018-06-22T12:39:00.516Z,100981.06
2018-06-22T12:42:05.017Z,101002.68
2018-06-22T12:45:08.871Z,100999.94
2018-06-22T12:48:21.598Z,100980.30
2018-06-22T12:51:25.566Z,100988.32
2018-06-22T12:54:30.130Z,101004.48
2018-06-22T12:57:34.298Z,101002.47
2018-06-22T13:00:37.800Z,101004.42
2018-06-22T13:03:42.139Z,101005.42
2018-06-22T13:06:46.429Z,101014.40
2018-06-22T13:09:50.583Z,101005.98
2018-06-22T13:12:56.312Z,101012.59
2018-06-22T13:15:59.979Z,101006.13
2018-06-22T13:19:04.706Z,101008.02
2018-06-22T13:22:08.760Z,101004.64
2018-06-22T13:25:13.966Z,100999.08
2018-06-22T13:28:18.801Z,101001.95
2018-06-22T13:31:22.867Z,101000.55
2018-06-22T13:34:26.966Z,101004.02
2018-06-22T13:37:31.668Z,101001.53
2018-06-22T13:40:35.800Z,100990.96
2018-06-22T13:43:39.500Z,100996.78
2018-06-22T13:46:43.662Z,100994.88
2018-06-22T13:49:47.315Z,101002.19
2018-06-22T13:52:50.854Z,100998.30
2018-06-22T13:55:54.880Z,101001.80
2018-06-22T13:58:58.704Z,100996.28
2018-06-22T14:02:04.004Z,101003.82
2018-06-22T14:05:12.872Z,101007.14
2018-06-22T14:08:19.480Z,101000.75
2018-06-22T14:11:24.742Z,101010.05
2018-06-22T14:14:30.400Z,101013.04
2018-06-22T14:17:36.189Z,101002.05
2018-06-22T14:24:24.216Z,101013.53
2018-06-22T14:27:27.724Z,101015.70
2018-06-22T14:30:31.163Z,101023.25
2018-06-22T14:33:34.659Z,101030.15
2018-06-22T14:36:38.102Z,101026.42
2018-06-22T14:39:41.517Z,101034.14
2018-06-22T14:42:45.333Z,101040.14
2018-06-22T14:45:49.592Z,101035.34
2018-06-22T14:48:53.500Z,101031.56
2018-06-22T14:52:02.675Z,101036.62
2018-06-22T14:55:11.170Z,101038.72
2018-06-22T14:58:20.678Z,101041.45
2018-06-22T15:01:31.051Z,101036.17
2018-06-22T15:04:56.683Z,101047.45
2018-06-22T15:08:07.356Z,101040.55
2018-06-22T15:11:17.832Z,101042.81
2018-06-22T15:14:29.193Z,101043.33
2018-06-22T15:17:37.539Z,101044.56
2018-06-22T15:20:45.786Z,101048.09
2018-06-22T15:23:49.530Z,101041.26
2018-06-22T15:26:53.760Z,101036.52
2018-06-22T15:29:58.548Z,101042.42
2018-06-22T15:33:02.269Z,101049.78
2018-06-22T15:36:12.342Z,101053.70
2018-06-22T15:39:21.518Z,101056.22
2018-06-22T15:42:30.349Z,101054.96
2018-06-22T15:45:39.079Z,101059.73
2018-06-22T15:48:48.714Z,101055.61
2018-06-22T15:51:57.645Z,101051.98
2018-06-22T15:55:08.166Z,101051.08
2018-06-22T15:58:11.671Z,101051.78
2018-06-22T16:01:15.049Z,101053.73
2018-06-22T16:04:18.413Z,101032.23
2018-06-22T16:07:22.691Z,101029.60
2018-06-22T16:10:26.654Z,101041.14
2018-06-22T16:13:30.315Z,101041.50
2018-06-22T16:16:39.226Z,101043.37
2018-06-22T16:19:48.089Z,101037.69
2018-06-22T16:22:56.665Z,101038.56
2018-06-22T16:26:05.854Z,101033.98
2018-06-22T16:29:09.334Z,101032.77
2018-06-22T16:32:13.377Z,101030.53
2018-06-22T16:35:16.777Z,101030.61
2018-06-22T16:38:20.216Z,101036.30
2018-06-22T16:41:24.146Z,101037.95
2018-06-22T16:44:27.747Z,101027.27
2018-06-22T16:47:31.608Z,101044.95
2018-06-22T16:50:35.102Z,101042.81
2018-06-22T16:53:38.527Z,101048.34
2018-06-22T16:56:42.037Z,101041.60
2018-06-22T16:59:46.324Z,101048.48
2018-06-22T17:02:52.710Z,101047.42
2018-06-22T17:05:57.488Z,101033.84
2018-06-22T17:09:06.470Z,101047.07
2018-06-22T17:12:15.128Z,101048.83
2018-06-22T17:15:28.364Z,101045.06
2018-06-22T17:18:37.328Z,101047.61
2018-06-22T17:21:42.125Z,101054.53
2018-06-22T17:24:46.219Z,101050.14
2018-06-22T17:27:49.962Z,101050.75
2018-06-22T17:30:53.892Z,101047.89
2018-06-22T17:33:58.492Z,101044.69
2018-06-22T17:37:03.180Z,101056.44
2018-06-22T17:40:09.593Z,101049.95
2018-06-22T17:43:13.514Z,101052.88
2018-06-22T17:46:32.588Z,101054.61
2018-06-22T17:49:39.880Z,101059.39
2018-06-22T17:52:43.551Z,101059.75
2018-06-22T17:55:47.745Z,101056.70
2018-06-22T17:58:56.774Z,101055.92
2018-06-22T18:02:05.834Z,101062.79
2018-06-22T18:05:14.687Z,101055.16
2018-06-22T18:08:23.666Z,101061.31
2018-06-22T18:11:32.664Z,101059.80
2018-06-22T18:14:36.235Z,101074.02
2018-06-22T18:17:39.948Z,101095.50
2018-06-22T18:20:43.948Z,101091.73
2018-06-22T18:23:47.467Z,101088.41
2018-06-22T18:26:52.376Z,101076.70
2018-06-22T18:29:56.738Z,101079.15
2018-06-22T18:33:00.418Z,101073.41
2018-06-22T18:36:06.943Z,101087.81
2018-06-22T18:39:12.013Z,101080.36
2018-06-22T18:42:16.610Z,101095.03
2018-06-22T18:45:20.317Z,101090.75
2018-06-22T18:48:24.270Z,101093.19
2018-06-22T18:51:28.178Z,101095.50
2018-06-22T18:54:37.430Z,101104.32
2018-06-22T18:57:46.299Z,101097.35
2018-06-22T19:00:55.907Z,101102.73
2018-06-22T19:04:00.635Z,101104.40
2018-06-22T19:07:06.569Z,101104.81
2018-06-22T19:10:10.700Z,101114.31
2018-06-22T19:13:14.397Z,101110.64
2018-06-22T19:16:19.432Z,101108.84
2018-06-22T19:19:23.530Z,101115.92
2018-06-22T19:22:27.488Z,101117.73
2018-06-22T19:25:31.008Z,101118.70
2018-06-22T19:28:36.977Z,101112.84
2018-06-22T19:31:40.647Z,101121.54
2018-06-22T19:34:49.534Z,101125.44
2018-06-22T19:37:53.237Z,101132.52
2018-06-22T19:40:57.204Z,101127.16
2018-06-22T19:44:06.237Z,101124.08
2018-06-22T19:47:15.234Z,101134.73
2018-06-22T19:50:24.236Z,101131.95
2018-06-22T19:53:33.111Z,101133.33
2018-06-22T19:56:37.707Z,101137.97
2018-06-22T19:59:41.227Z,101134.53
2018-06-22T20:02:44.923Z,101141.36
2018-06-22T20:05:48.482Z,101139.91
2018-06-22T20:08:52.949Z,101147.04
2018-06-22T20:11:57.585Z,101149.30
2018-06-22T20:15:01.194Z,101158.06
2018-06-22T20:18:04.860Z,101150.02
2018-06-22T20:21:09.321Z,101156.92
2018-06-22T20:24:12.990Z,101150.12
2018-06-22T20:27:19.909Z,101155.49
2018-06-22T20:30:23.947Z,101153.39
2018-06-22T20:33:27.781Z,101156.84
2018-06-22T20:36:36.501Z,101154.48
2018-06-22T20:39:45.465Z,101166.09
2018-06-22T20:42:54.407Z,101165.37
2018-06-22T20:45:59.247Z,101163.48
2018-06-22T20:49:08.142Z,101172.64
2018-06-22T20:52:11.964Z,101173.98
2018-06-22T20:55:16.736Z,101175.03
2018-06-22T20:58:20.744Z,101176.73
2018-06-22T21:01:24.425Z,101183.34
2018-06-22T21:04:28.053Z,101193.75
2018-06-22T21:07:31.842Z,101195.44
2018-06-22T21:10:35.486Z,101200.85
2018-06-22T21:13:39.101Z,101196.32
2018-06-22T21:16:42.755Z,101208.30
2018-06-22T21:19:47.160Z,101208.63
2018-06-22T21:22:50.915Z,101208.40
2018-06-22T21:25:54.474Z,101220.73
2018-06-22T21:29:03.313Z,101216.61
2018-06-22T21:32:11.919Z,101222.91
2018-06-22T21:35:20.540Z,101232.39
2018-06-22T21:38:29.254Z,101223.58
2018-06-22T21:41:32.700Z,101227.23
2018-06-22T21:44:36.429Z,101230.11
2018-06-22T21:47:39.987Z,101221.48
2018-06-22T21:50:43.396Z,101215.30
2018-06-22T21:53:46.754Z,101207.20
2018-06-22T21:56:50.160Z,101214.64
2018-06-22T21:59:53.588Z,101212.67
2018-06-22T22:02:57.936Z,101209.73
2018-06-22T22:06:02.205Z,101215.70
2018-06-22T22:09:08.089Z,101221.38
2018-06-22T22:12:11.687Z,101220.35
2018-06-22T22:15:15.866Z,101226.43
2018-06-22T22:18:19.344Z,101220.35
2018-06-22T22:21:23.834Z,101214.62
2018-06-22T22:24:27.334Z,101225.87
2018-06-22T22:27:30.656Z,101212.55
2018-06-22T22:30:34.025Z,101213.19
2018-06-22T22:33:37.530Z,101210.75
2018-06-22T22:36:41.329Z,101212.77
2018-06-22T22:39:44.813Z,101205.02
2018-06-22T22:42:48.254Z,101209.58
2018-06-22T22:45:52.153Z,101206.94
2018-06-22T22:48:55.433Z,101206.52
2018-06-22T22:51:58.733Z,101210.23
2018-06-22T22:55:02.738Z,101211.42
2018-06-22T22:58:06.279Z,101216.22
2018-06-22T23:01:09.664Z,101211.66
2018-06-22T23:04:13.012Z,101209.68
2018-06-22T23:07:16.952Z,101221.71
2018-06-22T23:10:21.149Z,101220.09
2018-06-22T23:13:26.671Z,101216.38
2018-06-22T23:16:30.023Z,101221.28
2018-06-22T23:19:33.565Z,101232.30
2018-06-22T23:22:48.402Z,101218.91
2018-06-22T23:25:52.296Z,101213.71
2018-06-22T23:28:56.676Z,101204.60
2018-06-22T23:32:00.048Z,101216.86
2018-06-22T23:35:03.349Z,101205.03
2018-06-22T23:38:07.903Z,101217.45
2018-06-22T23:41:11.276Z,101216.59
2018-06-22T23:44:15.716Z,101185.95
2018-06-22T23:47:18.968Z,101219.89
2018-06-22T23:50:22.205Z,101210.77
2018-06-22T23:53:25.404Z,101211.61
2018-06-22T23:56:28.618Z,101220.25
2018-06-22T23:59:31.904Z,101217.47
